sensor_id;sensor_type;location;lat;lon;timestamp;temperature;humidity
22008;DHT22;11168;56.976;24.168;2023-09-19T00:00:45;15.90;99.90
22008;DHT22;11168;56.976;24.168;2023-09-19T00:03:14;15.90;99.90
22008;DHT22;11168;56.976;24.168;2023-09-19T00:05:42;15.90;99.90
22008;DHT22;11168;56.976;24.168;2023-09-19T00:08:13;15.90;99.90
22008;DHT22;11168;56.976;24.168;2023-09-19T00:10:43;15.90;99.90
22008;DHT22;11168;56.976;24.168;2023-09-19T00:13:11;15.90;99.90
22008;DHT22;11168;56.976;24.168;2023-09-19T00:15:45;15.90;99.90
22008;DHT22;11168;56.976;24.168;2023-09-19T00:18:20;15.90;99.90
22008;DHT22;11168;56.976;24.168;2023-09-19T00:20:49;15.90;99.90
22008;DHT22;11168;56.976;24.168;2023-09-19T00:23:19;15.90;99.90
22008;DHT22;11168;56.976;24.168;2023-09-19T00:25:47;15.90;99.90
22008;DHT22;11168;56.976;24.168;2023-09-19T00:28:15;15.90;99.90
22008;DHT22;11168;56.976;24.168;2023-09-19T00:30:43;15.90;99.90
22008;DHT22;11168;56.976;24.168;2023-09-19T00:33:11;15.90;99.90
22008;DHT22;11168;56.976;24.168;2023-09-19T00:35:53;15.90;99.90
22008;DHT22;11168;56.976;24.168;2023-09-19T00:38:21;15.90;99.90
22008;DHT22;11168;56.976;24.168;2023-09-19T00:40:51;15.90;99.90
22008;DHT22;11168;56.976;24.168;2023-09-19T00:43:18;15.90;99.90
22008;DHT22;11168;56.976;24.168;2023-09-19T00:45:47;15.90;99.90
22008;DHT22;11168;56.976;24.168;2023-09-19T00:48:15;15.90;99.90
22008;DHT22;11168;56.976;24.168;2023-09-19T00:50:46;15.80;99.90
22008;DHT22;11168;56.976;24.168;2023-09-19T00:53:18;15.90;99.90
22008;DHT22;11168;56.976;24.168;2023-09-19T00:55:47;15.90;99.90
22008;DHT22;11168;56.976;24.168;2023-09-19T00:58:17;15.90;99.90
22008;DHT22;11168;56.976;24.168;2023-09-19T01:00:49;15.80;99.90
22008;DHT22;11168;56.976;24.168;2023-09-19T01:03:18;15.90;99.90
22008;DHT22;11168;56.976;24.168;2023-09-19T01:05:45;15.90;99.90
22008;DHT22;11168;56.976;24.168;2023-09-19T01:08:13;15.90;99.90
22008;DHT22;11168;56.976;24.168;2023-09-19T01:10:54;15.90;99.90
22008;DHT22;11168;56.976;24.168;2023-09-19T01:16:03;15.90;99.90
22008;DHT22;11168;56.976;24.168;2023-09-19T01:18:53;15.90;99.90
22008;DHT22;11168;56.976;24.168;2023-09-19T01:29:44;15.90;99.90
22008;DHT22;11168;56.976;24.168;2023-09-19T01:32:18;16.00;99.90
22008;DHT22;11168;56.976;24.168;2023-09-19T01:34:54;15.90;99.90
22008;DHT22;11168;56.976;24.168;2023-09-19T01:37:23;15.90;99.90
22008;DHT22;11168;56.976;24.168;2023-09-19T01:39:59;15.90;99.90
22008;DHT22;11168;56.976;24.168;2023-09-19T01:42:50;16.00;99.90
22008;DHT22;11168;56.976;24.168;2023-09-19T01:51:06;16.00;99.90
22008;DHT22;11168;56.976;24.168;2023-09-19T01:56:05;16.00;99.90
22008;DHT22;11168;56.976;24.168;2023-09-19T01:58:45;15.90;99.90
22008;DHT22;11168;56.976;24.168;2023-09-19T02:01:16;15.90;99.90
22008;DHT22;11168;56.976;24.168;2023-09-19T02:03:47;15.90;99.90
22008;DHT22;11168;56.976;24.168;2023-09-19T02:06:16;15.90;99.90
22008;DHT22;11168;56.976;24.168;2023-09-19T02:08:44;15.90;99.90
22008;DHT22;11168;56.976;24.168;2023-09-19T02:11:12;15.90;99.90
22008;DHT22;11168;56.976;24.168;2023-09-19T02:13:40;15.90;99.90
22008;DHT22;11168;56.976;24.168;2023-09-19T02:16:09;15.90;99.90
22008;DHT22;11168;56.976;24.168;2023-09-19T02:18:38;15.90;99.90
22008;DHT22;11168;56.976;24.168;2023-09-19T02:21:06;15.90;99.90
22008;DHT22;11168;56.976;24.168;2023-09-19T02:23:39;15.90;99.90
22008;DHT22;11168;56.976;24.168;2023-09-19T02:26:07;16.00;99.90
22008;DHT22;11168;56.976;24.168;2023-09-19T02:28:34;16.00;99.90
22008;DHT22;11168;56.976;24.168;2023-09-19T02:31:02;16.00;99.90
22008;DHT22;11168;56.976;24.168;2023-09-19T02:33:32;16.10;99.90
22008;DHT22;11168;56.976;24.168;2023-09-19T02:35:59;16.10;99.90
22008;DHT22;11168;56.976;24.168;2023-09-19T02:38:28;16.10;99.90
22008;DHT22;11168;56.976;24.168;2023-09-19T02:40:56;16.10;99.90
22008;DHT22;11168;56.976;24.168;2023-09-19T02:43:23;16.10;99.90
22008;DHT22;11168;56.976;24.168;2023-09-19T02:45:51;16.10;99.90
22008;DHT22;11168;56.976;24.168;2023-09-19T02:48:21;16.20;99.90
22008;DHT22;11168;56.976;24.168;2023-09-19T02:50:52;16.20;99.90
22008;DHT22;11168;56.976;24.168;2023-09-19T02:53:19;16.20;99.90
22008;DHT22;11168;56.976;24.168;2023-09-19T02:55:49;16.20;99.90
22008;DHT22;11168;56.976;24.168;2023-09-19T02:58:16;16.20;99.90
22008;DHT22;11168;56.976;24.168;2023-09-19T03:00:45;16.20;99.90
22008;DHT22;11168;56.976;24.168;2023-09-19T03:03:17;16.20;99.90
22008;DHT22;11168;56.976;24.168;2023-09-19T03:05:44;16.20;99.90
22008;DHT22;11168;56.976;24.168;2023-09-19T03:08:15;16.20;99.90
22008;DHT22;11168;56.976;24.168;2023-09-19T03:10:46;16.20;99.90
22008;DHT22;11168;56.976;24.168;2023-09-19T03:13:14;16.10;99.90
22008;DHT22;11168;56.976;24.168;2023-09-19T03:15:42;16.10;99.90
22008;DHT22;11168;56.976;24.168;2023-09-19T03:18:13;16.10;99.90
22008;DHT22;11168;56.976;24.168;2023-09-19T03:20:40;16.10;99.90
22008;DHT22;11168;56.976;24.168;2023-09-19T03:23:07;16.00;99.90
22008;DHT22;11168;56.976;24.168;2023-09-19T03:25:35;16.00;99.90
22008;DHT22;11168;56.976;24.168;2023-09-19T03:28:03;16.00;99.90
22008;DHT22;11168;56.976;24.168;2023-09-19T03:30:34;16.00;99.90
22008;DHT22;11168;56.976;24.168;2023-09-19T03:33:01;16.00;99.90
22008;DHT22;11168;56.976;24.168;2023-09-19T03:35:28;16.00;99.90
22008;DHT22;11168;56.976;24.168;2023-09-19T03:37:55;16.00;99.90
22008;DHT22;11168;56.976;24.168;2023-09-19T03:40:22;16.10;99.90
22008;DHT22;11168;56.976;24.168;2023-09-19T03:42:50;16.10;99.90
22008;DHT22;11168;56.976;24.168;2023-09-19T03:45:17;16.10;99.90
22008;DHT22;11168;56.976;24.168;2023-09-19T03:47:45;16.10;99.90
22008;DHT22;11168;56.976;24.168;2023-09-19T03:50:14;16.10;99.90
22008;DHT22;11168;56.976;24.168;2023-09-19T03:52:47;16.10;99.90
22008;DHT22;11168;56.976;24.168;2023-09-19T03:55:14;16.10;99.90
22008;DHT22;11168;56.976;24.168;2023-09-19T03:57:41;16.10;99.90
22008;DHT22;11168;56.976;24.168;2023-09-19T04:00:09;16.20;99.90
22008;DHT22;11168;56.976;24.168;2023-09-19T04:02:39;16.20;99.90
22008;DHT22;11168;56.976;24.168;2023-09-19T04:05:07;16.10;99.90
22008;DHT22;11168;56.976;24.168;2023-09-19T04:07:34;16.10;99.90
22008;DHT22;11168;56.976;24.168;2023-09-19T04:10:02;16.10;99.90
22008;DHT22;11168;56.976;24.168;2023-09-19T04:12:29;16.20;99.90
22008;DHT22;11168;56.976;24.168;2023-09-19T04:14:56;16.20;99.90
22008;DHT22;11168;56.976;24.168;2023-09-19T04:17:23;16.20;99.90
22008;DHT22;11168;56.976;24.168;2023-09-19T04:19:50;16.30;99.90
22008;DHT22;11168;56.976;24.168;2023-09-19T04:22:18;16.40;99.90
22008;DHT22;11168;56.976;24.168;2023-09-19T04:24:44;16.40;99.90
22008;DHT22;11168;56.976;24.168;2023-09-19T04:27:11;16.50;99.90
22008;DHT22;11168;56.976;24.168;2023-09-19T04:29:42;16.60;99.90
22008;DHT22;11168;56.976;24.168;2023-09-19T04:32:09;16.60;99.90
22008;DHT22;11168;56.976;24.168;2023-09-19T04:34:36;16.60;99.90
22008;DHT22;11168;56.976;24.168;2023-09-19T04:37:05;16.70;99.90
22008;DHT22;11168;56.976;24.168;2023-09-19T04:39:32;16.70;99.90
22008;DHT22;11168;56.976;24.168;2023-09-19T04:42:00;16.80;99.90
22008;DHT22;11168;56.976;24.168;2023-09-19T04:44:27;16.90;99.90
22008;DHT22;11168;56.976;24.168;2023-09-19T04:46:55;16.90;99.90
22008;DHT22;11168;56.976;24.168;2023-09-19T04:49:22;16.90;99.90
22008;DHT22;11168;56.976;24.168;2023-09-19T04:51:49;17.00;99.90
22008;DHT22;11168;56.976;24.168;2023-09-19T04:54:16;17.00;99.90
22008;DHT22;11168;56.976;24.168;2023-09-19T04:56:45;17.10;99.90
22008;DHT22;11168;56.976;24.168;2023-09-19T04:59:12;17.10;99.90
22008;DHT22;11168;56.976;24.168;2023-09-19T05:01:39;17.20;99.90
22008;DHT22;11168;56.976;24.168;2023-09-19T05:04:06;17.30;99.90
22008;DHT22;11168;56.976;24.168;2023-09-19T05:06:33;17.30;99.90
22008;DHT22;11168;56.976;24.168;2023-09-19T05:09:02;17.40;99.90
22008;DHT22;11168;56.976;24.168;2023-09-19T05:11:32;17.30;99.90
22008;DHT22;11168;56.976;24.168;2023-09-19T05:14:00;17.40;99.90
22008;DHT22;11168;56.976;24.168;2023-09-19T05:16:30;17.40;99.90
22008;DHT22;11168;56.976;24.168;2023-09-19T05:19:01;17.50;99.90
22008;DHT22;11168;56.976;24.168;2023-09-19T05:21:29;17.50;99.90
22008;DHT22;11168;56.976;24.168;2023-09-19T05:23:57;17.60;99.90
22008;DHT22;11168;56.976;24.168;2023-09-19T05:26:24;17.60;99.90
22008;DHT22;11168;56.976;24.168;2023-09-19T05:28:51;17.70;99.90
22008;DHT22;11168;56.976;24.168;2023-09-19T05:31:19;17.60;99.90
22008;DHT22;11168;56.976;24.168;2023-09-19T05:33:47;17.70;99.90
22008;DHT22;11168;56.976;24.168;2023-09-19T05:36:14;17.70;99.90
22008;DHT22;11168;56.976;24.168;2023-09-19T05:38:43;17.70;99.90
22008;DHT22;11168;56.976;24.168;2023-09-19T05:41:11;17.80;99.90
22008;DHT22;11168;56.976;24.168;2023-09-19T05:43:40;17.80;99.90
22008;DHT22;11168;56.976;24.168;2023-09-19T05:46:08;17.80;99.90
22008;DHT22;11168;56.976;24.168;2023-09-19T05:48:35;17.90;99.90
22008;DHT22;11168;56.976;24.168;2023-09-19T05:51:02;17.90;99.90
22008;DHT22;11168;56.976;24.168;2023-09-19T05:53:29;17.90;99.90
22008;DHT22;11168;56.976;24.168;2023-09-19T05:55:57;17.90;99.90
22008;DHT22;11168;56.976;24.168;2023-09-19T05:58:24;18.00;99.90
22008;DHT22;11168;56.976;24.168;2023-09-19T06:00:51;18.00;99.90
22008;DHT22;11168;56.976;24.168;2023-09-19T06:03:19;18.10;99.90
22008;DHT22;11168;56.976;24.168;2023-09-19T06:05:47;18.10;99.90
22008;DHT22;11168;56.976;24.168;2023-09-19T06:08:16;18.20;99.90
22008;DHT22;11168;56.976;24.168;2023-09-19T06:10:43;18.20;99.90
22008;DHT22;11168;56.976;24.168;2023-09-19T06:13:10;18.30;99.90
22008;DHT22;11168;56.976;24.168;2023-09-19T06:15:37;18.20;99.90
22008;DHT22;11168;56.976;24.168;2023-09-19T06:18:04;18.30;99.90
22008;DHT22;11168;56.976;24.168;2023-09-19T06:20:32;18.30;99.90
22008;DHT22;11168;56.976;24.168;2023-09-19T06:23:00;18.40;99.90
22008;DHT22;11168;56.976;24.168;2023-09-19T06:25:29;18.50;99.90
22008;DHT22;11168;56.976;24.168;2023-09-19T06:27:56;18.50;99.90
22008;DHT22;11168;56.976;24.168;2023-09-19T06:30:24;18.60;99.90
22008;DHT22;11168;56.976;24.168;2023-09-19T06:32:57;18.70;99.90
22008;DHT22;11168;56.976;24.168;2023-09-19T06:35:25;18.80;99.90
22008;DHT22;11168;56.976;24.168;2023-09-19T06:37:55;18.80;99.90
22008;DHT22;11168;56.976;24.168;2023-09-19T06:40:25;18.90;99.90
22008;DHT22;11168;56.976;24.168;2023-09-19T06:42:53;19.00;99.90
22008;DHT22;11168;56.976;24.168;2023-09-19T06:45:20;19.10;99.90
22008;DHT22;11168;56.976;24.168;2023-09-19T06:47:50;19.10;99.90
22008;DHT22;11168;56.976;24.168;2023-09-19T06:50:19;19.30;99.90
22008;DHT22;11168;56.976;24.168;2023-09-19T06:52:50;19.40;99.90
22008;DHT22;11168;56.976;24.168;2023-09-19T06:55:19;19.60;99.90
22008;DHT22;11168;56.976;24.168;2023-09-19T06:57:47;19.90;99.90
22008;DHT22;11168;56.976;24.168;2023-09-19T07:00:15;20.20;99.90
22008;DHT22;11168;56.976;24.168;2023-09-19T07:02:54;20.50;99.90
22008;DHT22;11168;56.976;24.168;2023-09-19T07:05:21;20.40;99.90
22008;DHT22;11168;56.976;24.168;2023-09-19T07:07:48;20.50;99.90
22008;DHT22;11168;56.976;24.168;2023-09-19T07:10:16;20.70;99.90
22008;DHT22;11168;56.976;24.168;2023-09-19T07:12:45;21.00;99.90
22008;DHT22;11168;56.976;24.168;2023-09-19T07:15:12;21.10;99.90
22008;DHT22;11168;56.976;24.168;2023-09-19T07:17:40;21.10;99.90
22008;DHT22;11168;56.976;24.168;2023-09-19T07:20:07;21.00;99.90
22008;DHT22;11168;56.976;24.168;2023-09-19T07:22:35;20.90;99.90
22008;DHT22;11168;56.976;24.168;2023-09-19T07:25:03;21.20;99.90
22008;DHT22;11168;56.976;24.168;2023-09-19T07:27:30;21.30;99.90
22008;DHT22;11168;56.976;24.168;2023-09-19T07:29:57;21.50;99.90
22008;DHT22;11168;56.976;24.168;2023-09-19T07:32:25;21.80;99.90
22008;DHT22;11168;56.976;24.168;2023-09-19T07:34:53;22.30;99.90
22008;DHT22;11168;56.976;24.168;2023-09-19T07:37:22;22.50;99.90
22008;DHT22;11168;56.976;24.168;2023-09-19T07:39:49;23.00;99.90
22008;DHT22;11168;56.976;24.168;2023-09-19T07:42:17;23.00;99.90
22008;DHT22;11168;56.976;24.168;2023-09-19T07:44:44;23.20;99.90
22008;DHT22;11168;56.976;24.168;2023-09-19T07:47:17;23.50;99.90
22008;DHT22;11168;56.976;24.168;2023-09-19T07:49:46;23.70;99.90
22008;DHT22;11168;56.976;24.168;2023-09-19T07:52:15;23.90;99.90
22008;DHT22;11168;56.976;24.168;2023-09-19T07:54:42;24.20;99.90
22008;DHT22;11168;56.976;24.168;2023-09-19T07:57:11;24.10;99.90
22008;DHT22;11168;56.976;24.168;2023-09-19T07:59:38;23.90;99.90
22008;DHT22;11168;56.976;24.168;2023-09-19T08:02:08;23.60;99.90
22008;DHT22;11168;56.976;24.168;2023-09-19T08:04:36;23.70;99.90
22008;DHT22;11168;56.976;24.168;2023-09-19T08:07:03;23.80;99.90
22008;DHT22;11168;56.976;24.168;2023-09-19T08:09:31;24.30;99.90
22008;DHT22;11168;56.976;24.168;2023-09-19T08:12:00;24.80;99.90
22008;DHT22;11168;56.976;24.168;2023-09-19T08:14:32;25.20;99.90
22008;DHT22;11168;56.976;24.168;2023-09-19T08:16:59;25.10;99.90
22008;DHT22;11168;56.976;24.168;2023-09-19T08:19:27;25.20;99.90
22008;DHT22;11168;56.976;24.168;2023-09-19T08:21:58;25.10;99.90
22008;DHT22;11168;56.976;24.168;2023-09-19T08:24:27;25.30;99.90
22008;DHT22;11168;56.976;24.168;2023-09-19T08:26:56;25.10;99.90
22008;DHT22;11168;56.976;24.168;2023-09-19T08:29:24;26.00;99.90
22008;DHT22;11168;56.976;24.168;2023-09-19T08:31:55;26.20;99.90
22008;DHT22;11168;56.976;24.168;2023-09-19T08:34:25;26.00;99.90
22008;DHT22;11168;56.976;24.168;2023-09-19T08:36:54;25.90;99.90
22008;DHT22;11168;56.976;24.168;2023-09-19T08:39:24;25.60;99.90
22008;DHT22;11168;56.976;24.168;2023-09-19T08:41:58;25.60;99.90
22008;DHT22;11168;56.976;24.168;2023-09-19T08:44:26;25.60;99.90
22008;DHT22;11168;56.976;24.168;2023-09-19T08:47:16;25.20;99.90
22008;DHT22;11168;56.976;24.168;2023-09-19T08:50:01;24.70;99.90
22008;DHT22;11168;56.976;24.168;2023-09-19T08:52:40;24.20;99.90
22008;DHT22;11168;56.976;24.168;2023-09-19T08:55:12;24.00;99.90
22008;DHT22;11168;56.976;24.168;2023-09-19T08:57:41;24.30;99.90
22008;DHT22;11168;56.976;24.168;2023-09-19T09:00:11;24.90;99.90
22008;DHT22;11168;56.976;24.168;2023-09-19T09:02:43;25.00;99.90
22008;DHT22;11168;56.976;24.168;2023-09-19T09:05:10;25.40;99.90
22008;DHT22;11168;56.976;24.168;2023-09-19T09:07:38;25.80;99.90
22008;DHT22;11168;56.976;24.168;2023-09-19T09:10:06;25.90;99.90
22008;DHT22;11168;56.976;24.168;2023-09-19T09:12:35;25.50;99.90
22008;DHT22;11168;56.976;24.168;2023-09-19T09:15:04;25.30;99.90
22008;DHT22;11168;56.976;24.168;2023-09-19T09:17:31;25.40;99.90
22008;DHT22;11168;56.976;24.168;2023-09-19T09:19:59;25.10;99.90
22008;DHT22;11168;56.976;24.168;2023-09-19T09:22:26;24.80;99.90
22008;DHT22;11168;56.976;24.168;2023-09-19T09:24:58;24.60;99.90
22008;DHT22;11168;56.976;24.168;2023-09-19T09:27:25;24.50;99.90
22008;DHT22;11168;56.976;24.168;2023-09-19T09:29:53;24.30;99.90
22008;DHT22;11168;56.976;24.168;2023-09-19T09:32:29;23.90;99.90
22008;DHT22;11168;56.976;24.168;2023-09-19T09:34:57;23.70;99.90
22008;DHT22;11168;56.976;24.168;2023-09-19T09:37:28;23.60;99.90
22008;DHT22;11168;56.976;24.168;2023-09-19T09:39:59;23.30;99.90
22008;DHT22;11168;56.976;24.168;2023-09-19T09:42:45;23.30;99.90
22008;DHT22;11168;56.976;24.168;2023-09-19T09:45:23;23.10;99.90
22008;DHT22;11168;56.976;24.168;2023-09-19T09:48:00;23.10;99.90
22008;DHT22;11168;56.976;24.168;2023-09-19T09:50:32;23.20;99.90
22008;DHT22;11168;56.976;24.168;2023-09-19T09:56:07;23.20;99.90
22008;DHT22;11168;56.976;24.168;2023-09-19T09:58:49;23.50;99.90
22008;DHT22;11168;56.976;24.168;2023-09-19T10:01:18;23.60;99.90
22008;DHT22;11168;56.976;24.168;2023-09-19T10:03:45;23.80;99.90
22008;DHT22;11168;56.976;24.168;2023-09-19T10:06:17;23.80;99.90
22008;DHT22;11168;56.976;24.168;2023-09-19T10:11:44;23.80;99.90
22008;DHT22;11168;56.976;24.168;2023-09-19T10:14:13;23.70;99.90
22008;DHT22;11168;56.976;24.168;2023-09-19T10:16:48;23.60;99.90
22008;DHT22;11168;56.976;24.168;2023-09-19T10:19:22;23.70;99.90
22008;DHT22;11168;56.976;24.168;2023-09-19T10:21:54;24.10;99.90
22008;DHT22;11168;56.976;24.168;2023-09-19T10:24:26;24.00;99.90
22008;DHT22;11168;56.976;24.168;2023-09-19T10:26:55;24.30;99.90
22008;DHT22;11168;56.976;24.168;2023-09-19T10:29:23;24.50;99.90
22008;DHT22;11168;56.976;24.168;2023-09-19T10:31:53;25.10;99.90
22008;DHT22;11168;56.976;24.168;2023-09-19T10:34:20;25.60;99.90
22008;DHT22;11168;56.976;24.168;2023-09-19T10:36:51;26.50;99.90
22008;DHT22;11168;56.976;24.168;2023-09-19T10:39:19;26.40;99.90
22008;DHT22;11168;56.976;24.168;2023-09-19T10:41:56;26.40;99.90
22008;DHT22;11168;56.976;24.168;2023-09-19T10:44:26;26.80;99.90
22008;DHT22;11168;56.976;24.168;2023-09-19T10:46:53;26.00;99.90
22008;DHT22;11168;56.976;24.168;2023-09-19T10:49:21;25.60;99.90
22008;DHT22;11168;56.976;24.168;2023-09-19T10:51:52;25.40;99.90
22008;DHT22;11168;56.976;24.168;2023-09-19T10:54:23;25.20;99.90
22008;DHT22;11168;56.976;24.168;2023-09-19T10:56:55;25.50;99.90
22008;DHT22;11168;56.976;24.168;2023-09-19T10:59:25;25.40;99.90
22008;DHT22;11168;56.976;24.168;2023-09-19T11:01:57;25.50;99.90
22008;DHT22;11168;56.976;24.168;2023-09-19T11:04:28;25.10;99.90
22008;DHT22;11168;56.976;24.168;2023-09-19T11:07:08;24.70;99.90
22008;DHT22;11168;56.976;24.168;2023-09-19T11:09:51;24.80;99.90
22008;DHT22;11168;56.976;24.168;2023-09-19T11:14:58;24.70;99.90
22008;DHT22;11168;56.976;24.168;2023-09-19T11:17:36;24.70;99.90
22008;DHT22;11168;56.976;24.168;2023-09-19T11:30:38;24.70;99.90
22008;DHT22;11168;56.976;24.168;2023-09-19T11:33:25;25.10;99.90
22008;DHT22;11168;56.976;24.168;2023-09-19T11:36:05;25.60;99.90
22008;DHT22;11168;56.976;24.168;2023-09-19T11:43:54;25.10;99.90
22008;DHT22;11168;56.976;24.168;2023-09-19T11:46:27;24.60;99.90
22008;DHT22;11168;56.976;24.168;2023-09-19T11:49:08;24.50;99.90
22008;DHT22;11168;56.976;24.168;2023-09-19T11:51:41;24.30;99.90
22008;DHT22;11168;56.976;24.168;2023-09-19T11:54:14;24.40;99.90
22008;DHT22;11168;56.976;24.168;2023-09-19T11:56:52;24.30;99.90
22008;DHT22;11168;56.976;24.168;2023-09-19T11:59:21;24.20;99.90
22008;DHT22;11168;56.976;24.168;2023-09-19T12:02:06;24.10;99.90
22008;DHT22;11168;56.976;24.168;2023-09-19T12:04:37;24.10;99.90
22008;DHT22;11168;56.976;24.168;2023-09-19T12:07:07;24.00;99.90
22008;DHT22;11168;56.976;24.168;2023-09-19T12:09:41;24.00;99.90
22008;DHT22;11168;56.976;24.168;2023-09-19T12:12:22;23.90;99.90
22008;DHT22;11168;56.976;24.168;2023-09-19T12:14:50;23.70;99.90
22008;DHT22;11168;56.976;24.168;2023-09-19T12:17:20;23.70;99.90
22008;DHT22;11168;56.976;24.168;2023-09-19T12:19:56;23.60;99.90
22008;DHT22;11168;56.976;24.168;2023-09-19T12:22:23;23.50;99.90
22008;DHT22;11168;56.976;24.168;2023-09-19T12:24:51;23.40;99.90
22008;DHT22;11168;56.976;24.168;2023-09-19T12:27:21;23.40;99.90
22008;DHT22;11168;56.976;24.168;2023-09-19T12:29:49;23.30;99.90
22008;DHT22;11168;56.976;24.168;2023-09-19T12:32:16;23.30;99.90
22008;DHT22;11168;56.976;24.168;2023-09-19T12:34:53;23.20;99.90
22008;DHT22;11168;56.976;24.168;2023-09-19T12:37:22;23.10;99.90
22008;DHT22;11168;56.976;24.168;2023-09-19T12:39:50;23.10;99.90
22008;DHT22;11168;56.976;24.168;2023-09-19T12:42:25;23.00;99.90
22008;DHT22;11168;56.976;24.168;2023-09-19T12:44:59;23.00;99.90
22008;DHT22;11168;56.976;24.168;2023-09-19T12:47:28;23.00;99.90
22008;DHT22;11168;56.976;24.168;2023-09-19T12:52:43;22.90;99.90
22008;DHT22;11168;56.976;24.168;2023-09-19T12:58:12;22.80;99.90
22008;DHT22;11168;56.976;24.168;2023-09-19T13:00:41;22.90;99.90
22008;DHT22;11168;56.976;24.168;2023-09-19T13:03:25;22.80;99.90
22008;DHT22;11168;56.976;24.168;2023-09-19T13:05:54;22.70;99.90
22008;DHT22;11168;56.976;24.168;2023-09-19T13:08:27;22.70;99.90
22008;DHT22;11168;56.976;24.168;2023-09-19T13:11:03;22.40;99.90
22008;DHT22;11168;56.976;24.168;2023-09-19T13:16:09;21.90;99.90
22008;DHT22;11168;56.976;24.168;2023-09-19T13:18:50;21.80;99.90
22008;DHT22;11168;56.976;24.168;2023-09-19T13:21:32;21.50;99.90
22008;DHT22;11168;56.976;24.168;2023-09-19T13:24:22;21.00;99.90
22008;DHT22;11168;56.976;24.168;2023-09-19T13:26:53;20.60;99.90
22008;DHT22;11168;56.976;24.168;2023-09-19T13:29:20;20.30;99.90
22008;DHT22;11168;56.976;24.168;2023-09-19T13:34:15;19.80;99.90
22008;DHT22;11168;56.976;24.168;2023-09-19T13:36:45;19.70;99.90
22008;DHT22;11168;56.976;24.168;2023-09-19T13:39:16;19.60;99.90
22008;DHT22;11168;56.976;24.168;2023-09-19T13:41:47;19.50;99.90
22008;DHT22;11168;56.976;24.168;2023-09-19T13:44:15;19.50;99.90
22008;DHT22;11168;56.976;24.168;2023-09-19T13:46:44;19.40;99.90
22008;DHT22;11168;56.976;24.168;2023-09-19T13:49:13;19.40;99.90
22008;DHT22;11168;56.976;24.168;2023-09-19T13:51:40;19.40;99.90
22008;DHT22;11168;56.976;24.168;2023-09-19T13:54:11;19.40;99.90
22008;DHT22;11168;56.976;24.168;2023-09-19T13:56:41;19.30;99.90
22008;DHT22;11168;56.976;24.168;2023-09-19T13:59:08;19.20;99.90
22008;DHT22;11168;56.976;24.168;2023-09-19T14:01:35;19.20;99.90
22008;DHT22;11168;56.976;24.168;2023-09-19T14:04:02;19.10;99.90
22008;DHT22;11168;56.976;24.168;2023-09-19T14:06:29;19.10;99.90
22008;DHT22;11168;56.976;24.168;2023-09-19T14:08:56;19.10;99.90
22008;DHT22;11168;56.976;24.168;2023-09-19T14:11:23;19.10;99.90
22008;DHT22;11168;56.976;24.168;2023-09-19T14:13:50;19.10;99.90
22008;DHT22;11168;56.976;24.168;2023-09-19T14:16:22;19.10;99.90
22008;DHT22;11168;56.976;24.168;2023-09-19T14:18:51;19.10;99.90
22008;DHT22;11168;56.976;24.168;2023-09-19T14:21:19;19.10;99.90
22008;DHT22;11168;56.976;24.168;2023-09-19T14:23:46;19.00;99.90
22008;DHT22;11168;56.976;24.168;2023-09-19T14:26:13;19.10;99.90
22008;DHT22;11168;56.976;24.168;2023-09-19T14:28:40;19.10;99.90
22008;DHT22;11168;56.976;24.168;2023-09-19T14:31:09;19.10;99.90
22008;DHT22;11168;56.976;24.168;2023-09-19T14:33:37;19.00;99.90
22008;DHT22;11168;56.976;24.168;2023-09-19T14:36:06;19.00;99.90
22008;DHT22;11168;56.976;24.168;2023-09-19T14:38:37;19.00;99.90
22008;DHT22;11168;56.976;24.168;2023-09-19T14:41:06;19.00;99.90
22008;DHT22;11168;56.976;24.168;2023-09-19T14:43:33;19.00;99.90
22008;DHT22;11168;56.976;24.168;2023-09-19T14:46:06;19.00;99.90
22008;DHT22;11168;56.976;24.168;2023-09-19T14:48:42;19.10;99.90
22008;DHT22;11168;56.976;24.168;2023-09-19T14:51:10;19.00;99.90
22008;DHT22;11168;56.976;24.168;2023-09-19T14:53:39;19.00;99.90
22008;DHT22;11168;56.976;24.168;2023-09-19T14:56:08;19.00;99.90
22008;DHT22;11168;56.976;24.168;2023-09-19T14:58:36;19.00;99.90
22008;DHT22;11168;56.976;24.168;2023-09-19T15:01:10;19.00;99.90
22008;DHT22;11168;56.976;24.168;2023-09-19T15:03:38;19.00;99.90
22008;DHT22;11168;56.976;24.168;2023-09-19T15:06:10;19.00;99.90
22008;DHT22;11168;56.976;24.168;2023-09-19T15:08:47;19.00;99.90
22008;DHT22;11168;56.976;24.168;2023-09-19T15:11:19;19.00;99.90
22008;DHT22;11168;56.976;24.168;2023-09-19T15:13:48;19.00;99.90
22008;DHT22;11168;56.976;24.168;2023-09-19T15:16:17;19.00;99.90
22008;DHT22;11168;56.976;24.168;2023-09-19T15:18:45;19.00;99.90
22008;DHT22;11168;56.976;24.168;2023-09-19T15:21:14;19.10;99.90
22008;DHT22;11168;56.976;24.168;2023-09-19T15:23:42;19.10;99.90
22008;DHT22;11168;56.976;24.168;2023-09-19T15:26:13;19.10;99.90
22008;DHT22;11168;56.976;24.168;2023-09-19T15:28:45;19.10;99.90
22008;DHT22;11168;56.976;24.168;2023-09-19T15:31:13;19.00;99.90
22008;DHT22;11168;56.976;24.168;2023-09-19T15:33:40;19.00;99.90
22008;DHT22;11168;56.976;24.168;2023-09-19T15:38:58;19.00;99.90
22008;DHT22;11168;56.976;24.168;2023-09-19T15:41:30;19.00;99.90
22008;DHT22;11168;56.976;24.168;2023-09-19T15:43:57;19.00;99.90
22008;DHT22;11168;56.976;24.168;2023-09-19T15:46:29;19.10;99.90
22008;DHT22;11168;56.976;24.168;2023-09-19T15:48:57;19.00;99.90
22008;DHT22;11168;56.976;24.168;2023-09-19T15:51:24;19.00;99.90
22008;DHT22;11168;56.976;24.168;2023-09-19T15:53:52;19.00;99.90
22008;DHT22;11168;56.976;24.168;2023-09-19T15:56:21;19.00;99.90
22008;DHT22;11168;56.976;24.168;2023-09-19T15:58:54;19.00;99.90
22008;DHT22;11168;56.976;24.168;2023-09-19T16:01:22;19.00;99.90
22008;DHT22;11168;56.976;24.168;2023-09-19T16:03:53;19.00;99.90
22008;DHT22;11168;56.976;24.168;2023-09-19T16:06:22;19.00;99.90
22008;DHT22;11168;56.976;24.168;2023-09-19T16:08:52;19.00;99.90
22008;DHT22;11168;56.976;24.168;2023-09-19T16:11:19;19.00;99.90
22008;DHT22;11168;56.976;24.168;2023-09-19T16:13:48;19.00;99.90
22008;DHT22;11168;56.976;24.168;2023-09-19T16:16:17;19.00;99.90
22008;DHT22;11168;56.976;24.168;2023-09-19T16:18:47;19.00;99.90
22008;DHT22;11168;56.976;24.168;2023-09-19T16:21:15;18.90;99.90
22008;DHT22;11168;56.976;24.168;2023-09-19T16:23:46;18.90;99.90
22008;DHT22;11168;56.976;24.168;2023-09-19T16:26:13;18.90;99.90
22008;DHT22;11168;56.976;24.168;2023-09-19T16:28:41;18.90;99.90